createdAt,value
2023-05-02T00:00:36.233Z,22.33
2023-05-02T00:01:41.444Z,22.33
2023-05-02T00:02:46.806Z,22.32
2023-05-02T00:03:52.867Z,22.3
2023-05-02T00:04:58.512Z,22.3
2023-05-02T00:06:03.892Z,22.3
2023-05-02T00:07:09.308Z,22.31
2023-05-02T00:08:14.538Z,22.3
2023-05-02T00:09:19.727Z,22.31
2023-05-02T00:10:24.916Z,22.31
2023-05-02T00:11:30.105Z,22.31
2023-05-02T00:12:35.304Z,22.31
2023-05-02T00:13:40.528Z,22.31
2023-05-02T00:14:45.761Z,22.31
2023-05-02T00:15:50.974Z,22.3
2023-05-02T00:16:56.280Z,22.28
2023-05-02T00:18:01.859Z,22.31
2023-05-02T00:19:07.132Z,22.3
2023-05-02T00:20:12.444Z,22.3
2023-05-02T00:21:17.667Z,22.3
2023-05-02T00:22:22.857Z,22.29
2023-05-02T00:23:28.107Z,22.29
2023-05-02T00:24:33.288Z,22.27
2023-05-02T00:25:38.453Z,22.29
2023-05-02T00:26:43.660Z,22.29
2023-05-02T00:27:49.018Z,22.28
2023-05-02T00:28:54.330Z,22.27
2023-05-02T00:29:59.681Z,22.28
2023-05-02T00:31:05.932Z,22.27
2023-05-02T00:32:11.288Z,22.28
2023-05-02T00:33:16.488Z,22.28
2023-05-02T00:34:21.701Z,22.27
2023-05-02T00:35:26.896Z,22.26
2023-05-02T00:36:32.121Z,22.26
2023-05-02T00:37:37.328Z,22.27
2023-05-02T00:38:42.535Z,22.27
2023-05-02T00:39:47.743Z,22.26
2023-05-02T00:40:52.915Z,22.25
2023-05-02T00:41:58.215Z,22.26
2023-05-02T00:43:03.472Z,22.26
2023-05-02T00:44:08.668Z,22.26
2023-05-02T00:45:13.982Z,22.25
2023-05-02T00:46:19.294Z,22.26
2023-05-02T00:47:24.675Z,22.24
2023-05-02T00:48:29.906Z,22.25
2023-05-02T00:49:35.135Z,22.26
2023-05-02T00:50:40.357Z,22.25
2023-05-02T00:51:45.832Z,22.25
2023-05-02T00:52:51.019Z,22.24
2023-05-02T00:53:56.200Z,22.25
2023-05-02T00:55:01.390Z,22.25
2023-05-02T00:56:06.616Z,22.23
2023-05-02T00:57:11.804Z,22.24
2023-05-02T00:58:17.005Z,22.24
2023-05-02T00:59:22.233Z,22.24
2023-05-02T01:00:28.370Z,22.24
2023-05-02T01:01:33.726Z,22.24
2023-05-02T01:02:39.134Z,22.23
2023-05-02T01:03:44.704Z,22.22
2023-05-02T01:04:50.296Z,22.24
2023-05-02T01:05:55.543Z,22.23
2023-05-02T01:07:00.854Z,22.23
2023-05-02T01:08:06.079Z,22.23
2023-05-02T01:09:11.321Z,22.2
2023-05-02T01:10:16.499Z,22.22
2023-05-02T01:11:21.667Z,22.23
2023-05-02T01:12:26.905Z,22.22
2023-05-02T01:13:32.101Z,22.21
2023-05-02T01:14:37.269Z,22.21
2023-05-02T01:15:42.504Z,22.2
2023-05-02T01:16:47.823Z,22.2
2023-05-02T01:17:53.053Z,22.19
2023-05-02T01:18:58.295Z,22.2
2023-05-02T01:20:03.643Z,22.19
2023-05-02T01:21:08.955Z,22.19
2023-05-02T01:22:14.162Z,22.2
2023-05-02T01:23:19.346Z,22.19
2023-05-02T01:24:24.546Z,22.02
2023-05-02T01:25:29.784Z,22.19
2023-05-02T01:26:35.021Z,22.19
2023-05-02T01:27:40.228Z,22.19
2023-05-02T01:28:45.463Z,22.19
2023-05-02T01:29:50.688Z,22.19
2023-05-02T01:30:55.919Z,22.19
2023-05-02T01:32:01.169Z,22.18
2023-05-02T01:33:06.706Z,22.18
2023-05-02T01:34:12.128Z,22.16
2023-05-02T01:35:17.407Z,22.18
2023-05-02T01:36:22.605Z,22.16
2023-05-02T01:37:27.797Z,22.18
2023-05-02T01:38:32.989Z,22.16
2023-05-02T01:39:38.190Z,22.16
2023-05-02T01:40:43.373Z,22.17
2023-05-02T01:41:48.633Z,22.17
2023-05-02T01:42:53.839Z,22.16
2023-05-02T01:43:59.076Z,22.17
2023-05-02T01:45:04.274Z,22.17
2023-05-02T01:46:09.485Z,22.16
2023-05-02T01:47:14.776Z,22.16
2023-05-02T01:48:20.298Z,22.16
2023-05-02T01:49:25.526Z,22.15
2023-05-02T01:50:30.832Z,22.15
2023-05-02T01:51:36.011Z,22.14
2023-05-02T01:52:41.206Z,22.15
2023-05-02T01:53:46.408Z,22.13
2023-05-02T01:54:51.584Z,22.15
2023-05-02T01:55:56.780Z,22.13
2023-05-02T01:57:01.983Z,22.12
2023-05-02T01:58:07.179Z,22.14
2023-05-02T01:59:12.376Z,22.13
2023-05-02T02:00:17.566Z,22.14
2023-05-02T02:01:22.786Z,22.14
2023-05-02T02:02:28.111Z,22.14
2023-05-02T02:03:33.373Z,22.13
2023-05-02T02:04:38.654Z,22.13
2023-05-02T02:05:44.277Z,22.13
2023-05-02T02:06:49.687Z,22.12
2023-05-02T02:07:55.353Z,22.12
2023-05-02T02:09:00.556Z,22.12
2023-05-02T02:10:05.771Z,22.12
2023-05-02T02:11:10.982Z,21.94
2023-05-02T02:12:16.163Z,22.11
2023-05-02T02:13:21.411Z,22.1
2023-05-02T02:14:26.644Z,22.12
2023-05-02T02:15:31.868Z,22.1
2023-05-02T02:16:37.132Z,22.11
2023-05-02T02:17:42.539Z,22.1
2023-05-02T02:18:47.903Z,22.11
2023-05-02T02:19:53.081Z,22.11
2023-05-02T02:20:58.313Z,22.09
2023-05-02T02:22:03.530Z,22.1
2023-05-02T02:23:08.744Z,22.1
2023-05-02T02:24:14.014Z,22.1
2023-05-02T02:25:19.214Z,22.1
2023-05-02T02:26:24.398Z,22.08
2023-05-02T02:27:29.647Z,22.08
2023-05-02T02:28:34.872Z,22.09
2023-05-02T02:29:40.056Z,22.09
2023-05-02T02:30:45.273Z,22.09
2023-05-02T02:31:50.640Z,22.07
2023-05-02T02:32:55.834Z,22.08
2023-05-02T02:34:01.232Z,22.09
2023-05-02T02:35:06.458Z,22.07
2023-05-02T02:36:11.647Z,22.07
2023-05-02T02:37:16.851Z,22.08
2023-05-02T02:38:22.212Z,22.08
2023-05-02T02:39:27.421Z,22.07
2023-05-02T02:40:32.597Z,22.07
2023-05-02T02:41:37.769Z,22.08
2023-05-02T02:42:42.945Z,22.06
2023-05-02T02:43:48.169Z,22.06
2023-05-02T02:44:53.430Z,22.07
2023-05-02T02:45:58.742Z,22.06
2023-05-02T02:47:04.127Z,22.07
2023-05-02T02:48:09.340Z,22.07
2023-05-02T02:49:14.753Z,22.06
2023-05-02T02:50:19.983Z,22.05
2023-05-02T02:51:25.224Z,22.05
2023-05-02T02:52:30.411Z,22.05
2023-05-02T02:53:35.582Z,22.03
2023-05-02T02:54:40.837Z,22.05
2023-05-02T02:55:46.030Z,22.05
2023-05-02T02:56:51.254Z,22.05
2023-05-02T02:57:56.420Z,22.05
2023-05-02T02:59:01.634Z,22.04
2023-05-02T03:00:06.890Z,22.04
2023-05-02T03:01:12.100Z,22.03
2023-05-02T03:02:17.477Z,22.02
2023-05-02T03:03:22.780Z,22.02
2023-05-02T03:04:28.323Z,22.03
2023-05-02T03:05:33.527Z,22.02
2023-05-02T03:06:38.740Z,22.01
2023-05-02T03:07:44.111Z,22.03
2023-05-02T03:08:49.400Z,22.03
2023-05-02T03:09:54.586Z,22.04
2023-05-02T03:11:00.058Z,22.02
2023-05-02T03:12:05.269Z,22.01
2023-05-02T03:13:10.458Z,22.03
2023-05-02T03:14:15.639Z,22.01
2023-05-02T03:15:20.826Z,22.02
2023-05-02T03:16:26.077Z,22
2023-05-02T03:17:31.686Z,22.02
2023-05-02T03:18:36.953Z,22
2023-05-02T03:19:42.156Z,21.99
2023-05-02T03:20:47.354Z,22.01
2023-05-02T03:21:52.658Z,22.02
2023-05-02T03:22:57.854Z,21.99
2023-05-02T03:24:03.137Z,21.99
2023-05-02T03:25:08.380Z,22.01
2023-05-02T03:26:13.614Z,22.01
2023-05-02T03:27:18.808Z,21.99
2023-05-02T03:28:24.006Z,22
2023-05-02T03:29:29.250Z,22
2023-05-02T03:30:34.468Z,22
2023-05-02T03:31:39.769Z,21.99
2023-05-02T03:32:45.257Z,21.99
2023-05-02T03:33:50.986Z,21.98
2023-05-02T03:34:56.955Z,21.96
2023-05-02T03:36:02.179Z,21.98
2023-05-02T03:37:07.447Z,21.99
2023-05-02T03:38:12.663Z,21.98
2023-05-02T03:39:17.832Z,21.97
2023-05-02T03:40:23.036Z,21.99
2023-05-02T03:41:28.230Z,21.98
2023-05-02T03:42:33.418Z,21.99
2023-05-02T03:43:38.631Z,21.98
2023-05-02T03:44:43.816Z,21.98
2023-05-02T03:45:49.012Z,21.97
2023-05-02T03:46:54.239Z,21.98
2023-05-02T03:47:59.691Z,21.98
2023-05-02T03:49:05.054Z,21.97
2023-05-02T03:50:10.233Z,21.98
2023-05-02T03:51:15.426Z,21.96
2023-05-02T03:52:20.595Z,21.98
2023-05-02T03:53:25.787Z,21.97
2023-05-02T03:54:30.969Z,21.97
2023-05-02T03:55:36.145Z,21.98
2023-05-02T03:56:42.769Z,21.95
2023-05-02T03:57:48.265Z,21.95
2023-05-02T03:58:53.531Z,21.97
2023-05-02T03:59:58.982Z,21.96
2023-05-02T04:01:05.175Z,21.95
2023-05-02T04:02:10.388Z,21.97
2023-05-02T04:03:15.782Z,21.95
2023-05-02T04:04:21.141Z,21.94
2023-05-02T04:05:26.532Z,21.95
2023-05-02T04:06:31.817Z,21.95
2023-05-02T04:07:37.190Z,21.96
2023-05-02T04:08:42.378Z,21.95
2023-05-02T04:09:47.604Z,21.95
2023-05-02T04:10:52.874Z,21.95
2023-05-02T04:11:58.106Z,21.96
2023-05-02T04:13:03.309Z,21.96
2023-05-02T04:14:08.592Z,21.95
2023-05-02T04:15:13.793Z,21.94
2023-05-02T04:16:19.052Z,21.95
2023-05-02T04:17:24.454Z,21.96
2023-05-02T04:18:29.804Z,21.95
2023-05-02T04:19:35.045Z,21.95
2023-05-02T04:20:40.265Z,21.93
2023-05-02T04:21:45.461Z,21.95
2023-05-02T04:22:50.719Z,21.95
2023-05-02T04:23:55.963Z,21.95
2023-05-02T04:25:01.220Z,21.95
2023-05-02T04:26:06.448Z,21.95
2023-05-02T04:27:13.762Z,21.94
2023-05-02T04:28:20.203Z,21.95
2023-05-02T04:29:25.410Z,21.94
2023-05-02T04:30:30.680Z,21.94
2023-05-02T04:31:36.042Z,21.94
2023-05-02T04:32:41.354Z,21.93
2023-05-02T04:33:46.646Z,21.94
2023-05-02T04:34:51.853Z,21.94
2023-05-02T04:35:57.082Z,21.93
2023-05-02T04:37:02.350Z,21.94
2023-05-02T04:38:07.597Z,21.94
2023-05-02T04:39:12.811Z,21.93
2023-05-02T04:40:18.040Z,21.93
2023-05-02T04:41:23.304Z,21.93
2023-05-02T04:42:28.483Z,21.94
2023-05-02T04:43:33.691Z,21.91
2023-05-02T04:44:38.892Z,21.91
2023-05-02T04:45:44.208Z,21.93
2023-05-02T04:46:49.500Z,21.94
2023-05-02T04:47:54.954Z,21.93
2023-05-02T04:49:00.330Z,21.93
2023-05-02T04:50:05.513Z,21.93
2023-05-02T04:51:10.775Z,21.92
2023-05-02T04:52:19.506Z,21.93
2023-05-02T04:53:24.706Z,21.92
2023-05-02T04:54:29.904Z,21.93
2023-05-02T04:55:35.109Z,21.92
2023-05-02T04:56:40.320Z,21.92
2023-05-02T04:57:45.506Z,21.92
2023-05-02T04:58:50.772Z,21.91
2023-05-02T04:59:55.970Z,21.92
2023-05-02T05:01:01.731Z,21.91
2023-05-02T05:02:07.110Z,21.9
2023-05-02T05:03:12.825Z,21.92
2023-05-02T05:04:18.270Z,21.92
2023-05-02T05:05:23.762Z,21.9
2023-05-02T05:06:29.120Z,21.91
2023-05-02T05:07:34.537Z,21.91
2023-05-02T05:08:39.789Z,21.89
2023-05-02T05:09:45.038Z,21.91
2023-05-02T05:10:50.274Z,21.91
2023-05-02T05:11:55.528Z,21.89
2023-05-02T05:13:00.782Z,21.89
2023-05-02T05:14:06.001Z,21.91
2023-05-02T05:15:11.250Z,21.91
2023-05-02T05:16:16.476Z,21.9
2023-05-02T05:17:21.737Z,21.9
2023-05-02T05:18:27.027Z,21.89
2023-05-02T05:19:32.253Z,21.89
2023-05-02T05:20:37.491Z,21.88
2023-05-02T05:21:42.696Z,21.89
2023-05-02T05:22:47.946Z,21.9
2023-05-02T05:23:53.176Z,21.9
2023-05-02T05:24:58.361Z,21.89
2023-05-02T05:26:03.546Z,21.86
2023-05-02T05:27:08.768Z,21.88
2023-05-02T05:28:13.969Z,21.89
2023-05-02T05:29:19.181Z,21.9
2023-05-02T05:30:24.376Z,21.9
2023-05-02T05:31:29.602Z,21.9
2023-05-02T05:32:34.980Z,21.88
2023-05-02T05:33:40.506Z,21.89
2023-05-02T05:34:45.886Z,21.89
2023-05-02T05:35:51.095Z,21.89
2023-05-02T05:36:56.321Z,21.89
2023-05-02T05:38:01.528Z,21.89
2023-05-02T05:39:06.719Z,21.89
2023-05-02T05:40:11.881Z,21.88
2023-05-02T05:41:17.111Z,21.88
2023-05-02T05:42:22.333Z,21.88
2023-05-02T05:43:27.515Z,21.86
2023-05-02T05:44:32.715Z,21.87
2023-05-02T05:45:37.911Z,21.88
2023-05-02T05:46:43.115Z,21.88
2023-05-02T05:47:48.454Z,21.86
2023-05-02T05:48:53.877Z,21.86
2023-05-02T05:49:59.223Z,21.86
2023-05-02T05:51:05.653Z,21.88
2023-05-02T05:52:10.848Z,21.88
2023-05-02T05:53:16.137Z,21.87
2023-05-02T05:54:21.338Z,21.87
2023-05-02T05:55:26.534Z,21.87
2023-05-02T05:56:31.749Z,21.87
2023-05-02T05:57:36.967Z,21.87
2023-05-02T05:58:42.184Z,21.86
2023-05-02T05:59:47.431Z,21.86
2023-05-02T06:00:52.683Z,21.87
2023-05-02T06:01:57.861Z,21.85
2023-05-02T06:03:03.192Z,21.87
2023-05-02T06:04:12.580Z,21.87
2023-05-02T06:05:18.422Z,21.85
2023-05-02T06:06:23.668Z,21.87
2023-05-02T06:07:28.996Z,21.85
2023-05-02T06:08:34.243Z,21.87
2023-05-02T06:09:39.480Z,21.86
2023-05-02T06:10:44.749Z,21.86
2023-05-02T06:11:49.920Z,21.86
2023-05-02T06:12:55.148Z,21.86
2023-05-02T06:14:00.378Z,21.85
2023-05-02T06:15:05.593Z,21.84
2023-05-02T06:16:10.824Z,21.86
2023-05-02T06:17:16.211Z,21.85
2023-05-02T06:18:21.398Z,21.86
2023-05-02T06:19:26.607Z,21.85
2023-05-02T06:20:31.814Z,21.86
2023-05-02T06:21:37.063Z,21.86
2023-05-02T06:22:42.300Z,21.83
2023-05-02T06:23:47.488Z,21.84
2023-05-02T06:24:52.708Z,21.84
2023-05-02T06:25:57.995Z,21.86
2023-05-02T06:27:03.240Z,21.84
2023-05-02T06:28:08.450Z,21.86
2023-05-02T06:29:13.704Z,21.86
2023-05-02T06:30:18.953Z,21.83
2023-05-02T06:31:24.162Z,21.84
2023-05-02T06:32:29.506Z,21.85
2023-05-02T06:33:35.023Z,21.83
2023-05-02T06:34:40.229Z,21.86
2023-05-02T06:35:45.435Z,21.85
2023-05-02T06:36:50.657Z,21.85
2023-05-02T06:37:55.842Z,21.85
2023-05-02T06:39:01.039Z,21.85
2023-05-02T06:40:06.290Z,21.84
2023-05-02T06:41:11.618Z,21.85
2023-05-02T06:42:19.843Z,21.83
2023-05-02T06:43:25.056Z,21.85
2023-05-02T06:44:30.373Z,21.84
2023-05-02T06:45:35.577Z,21.85
2023-05-02T06:46:40.817Z,21.85
2023-05-02T06:47:46.160Z,21.85
2023-05-02T06:48:51.526Z,21.85
2023-05-02T06:49:56.710Z,21.85
2023-05-02T06:51:02.696Z,21.83
2023-05-02T06:52:07.890Z,21.83
2023-05-02T06:53:13.184Z,21.83
2023-05-02T06:54:18.405Z,21.83
2023-05-02T06:55:23.604Z,21.85
2023-05-02T06:56:28.784Z,21.84
2023-05-02T06:57:34.005Z,21.84
2023-05-02T06:58:39.166Z,21.83
2023-05-02T06:59:44.395Z,21.83
2023-05-02T07:00:49.647Z,21.83
2023-05-02T07:01:55.035Z,21.85
2023-05-02T07:03:00.294Z,21.84
2023-05-02T07:04:05.724Z,21.84
2023-05-02T07:05:11.232Z,21.83
2023-05-02T07:06:16.533Z,21.84
2023-05-02T07:07:21.880Z,21.83
2023-05-02T07:08:27.105Z,21.83
2023-05-02T07:09:32.306Z,21.82
2023-05-02T07:10:37.658Z,21.83
2023-05-02T07:11:42.855Z,21.83
2023-05-02T07:12:48.375Z,21.84
2023-05-02T07:13:53.553Z,21.83
2023-05-02T07:14:58.785Z,21.83
2023-05-02T07:16:04.058Z,21.83
2023-05-02T07:17:09.328Z,21.82
2023-05-02T07:18:14.785Z,21.84
2023-05-02T07:19:20.083Z,21.81
2023-05-02T07:20:25.375Z,21.83
2023-05-02T07:21:30.615Z,21.84
2023-05-02T07:22:35.825Z,21.83
2023-05-02T07:23:41.082Z,21.83
2023-05-02T07:24:46.272Z,21.84
2023-05-02T07:25:51.478Z,21.83
2023-05-02T07:26:56.674Z,21.83
2023-05-02T07:28:02.000Z,21.83
2023-05-02T07:29:07.278Z,21.81
2023-05-02T07:30:12.493Z,21.71
2023-05-02T07:31:18.988Z,21.81
2023-05-02T07:32:24.403Z,21.82
2023-05-02T07:33:30.310Z,21.82
2023-05-02T07:34:35.513Z,21.82
2023-05-02T07:35:40.722Z,21.82
2023-05-02T07:36:45.950Z,21.82
2023-05-02T07:37:51.169Z,21.8
2023-05-02T07:38:56.401Z,21.81
2023-05-02T07:40:02.093Z,21.8
2023-05-02T07:41:08.091Z,21.8
2023-05-02T07:42:13.310Z,21.82
2023-05-02T07:43:18.602Z,21.8
2023-05-02T07:44:23.800Z,21.8
2023-05-02T07:45:29.014Z,21.8
2023-05-02T07:46:34.199Z,21.81
2023-05-02T07:47:39.595Z,21.8
2023-05-02T07:48:44.914Z,21.81
2023-05-02T07:49:50.125Z,21.81
2023-05-02T07:50:55.321Z,21.81
2023-05-02T07:52:00.527Z,21.81
2023-05-02T07:53:05.695Z,21.81
2023-05-02T07:54:10.883Z,21.8
2023-05-02T07:55:16.049Z,21.79
2023-05-02T07:56:21.253Z,21.79
2023-05-02T07:57:26.797Z,21.81
2023-05-02T07:58:32.902Z,21.8
2023-05-02T07:59:38.554Z,21.8
2023-05-02T08:00:43.825Z,21.72
2023-05-02T08:01:49.040Z,21.8
2023-05-02T08:02:54.465Z,21.79
2023-05-02T08:04:00.104Z,21.78
2023-05-02T08:05:06.049Z,21.78
2023-05-02T08:06:12.015Z,21.78
2023-05-02T08:07:17.428Z,21.8
2023-05-02T08:08:22.647Z,21.79
2023-05-02T08:09:27.823Z,21.78
2023-05-02T08:10:33.014Z,21.8
2023-05-02T08:11:38.209Z,21.8
2023-05-02T08:12:43.401Z,21.78
2023-05-02T08:13:48.620Z,21.79
2023-05-02T08:14:53.816Z,21.8
2023-05-02T08:15:59.162Z,21.79
2023-05-02T08:17:04.576Z,21.8
2023-05-02T08:18:09.870Z,21.79
2023-05-02T08:19:15.496Z,21.78
2023-05-02T08:20:20.676Z,21.79
2023-05-02T08:21:26.286Z,21.78
2023-05-02T08:22:32.534Z,21.77
2023-05-02T08:23:38.026Z,21.79
2023-05-02T08:24:43.220Z,21.8
2023-05-02T08:25:48.414Z,21.78
2023-05-02T08:26:53.666Z,21.78
2023-05-02T08:27:58.926Z,21.78
2023-05-02T08:29:04.138Z,21.78
2023-05-02T08:30:09.331Z,21.78
2023-05-02T08:31:14.572Z,21.78
2023-05-02T08:32:19.940Z,21.79
2023-05-02T08:33:25.145Z,21.79
2023-05-02T08:34:30.359Z,21.78
2023-05-02T08:35:35.533Z,21.79
2023-05-02T08:36:40.733Z,21.79
2023-05-02T08:37:45.969Z,21.8
2023-05-02T08:38:51.198Z,21.8
2023-05-02T08:39:56.444Z,21.79
2023-05-02T08:41:02.179Z,21.77
2023-05-02T08:42:07.354Z,21.77
2023-05-02T08:43:12.595Z,21.77
2023-05-02T08:44:17.844Z,21.78
2023-05-02T08:45:23.031Z,21.8
2023-05-02T08:46:28.294Z,21.79
2023-05-02T08:47:33.784Z,21.8
2023-05-02T08:48:39.115Z,21.79
2023-05-02T08:49:44.313Z,21.79
2023-05-02T08:50:49.517Z,21.79
2023-05-02T08:51:54.739Z,21.78
2023-05-02T08:52:59.924Z,21.79
2023-05-02T08:54:05.158Z,21.79
2023-05-02T08:55:10.623Z,21.78
2023-05-02T08:56:15.906Z,21.79
2023-05-02T08:57:21.112Z,21.79
2023-05-02T08:58:26.476Z,21.79
2023-05-02T08:59:31.710Z,21.79
2023-05-02T09:00:36.915Z,21.77
2023-05-02T09:01:42.128Z,21.78
2023-05-02T09:02:47.648Z,21.79
2023-05-02T09:03:53.082Z,21.79
2023-05-02T09:04:58.691Z,21.79
2023-05-02T09:06:05.219Z,21.79
2023-05-02T09:07:10.930Z,21.79
2023-05-02T09:08:16.222Z,21.79
2023-05-02T09:09:21.436Z,21.77
2023-05-02T09:10:26.682Z,21.78
2023-05-02T09:11:31.882Z,21.79
2023-05-02T09:12:37.070Z,21.77
2023-05-02T09:13:42.249Z,21.79
2023-05-02T09:14:47.442Z,21.78
2023-05-02T09:16:58.217Z,21.78
2023-05-02T09:18:03.923Z,21.78
2023-05-02T09:19:11.306Z,21.77
2023-05-02T09:20:16.496Z,21.78
2023-05-02T09:21:21.859Z,21.78
2023-05-02T09:22:27.094Z,21.76
2023-05-02T09:23:32.279Z,21.78
2023-05-02T09:24:37.552Z,21.76
2023-05-02T09:25:42.717Z,21.78
2023-05-02T09:26:47.914Z,21.78
2023-05-02T09:27:53.126Z,21.78
2023-05-02T09:28:58.450Z,21.79
2023-05-02T09:30:03.714Z,21.78
2023-05-02T09:31:09.063Z,21.78
2023-05-02T09:32:14.720Z,21.78
2023-05-02T09:33:22.010Z,21.78
2023-05-02T09:34:27.418Z,21.78
2023-05-02T09:35:32.651Z,21.76
2023-05-02T09:36:37.830Z,21.78
2023-05-02T09:37:43.046Z,21.78
2023-05-02T09:38:48.242Z,21.78
2023-05-02T09:39:53.423Z,21.78
2023-05-02T09:40:58.642Z,21.78
2023-05-02T09:42:04.031Z,21.78
2023-05-02T09:43:09.260Z,21.76
2023-05-02T09:44:14.424Z,21.77
2023-05-02T09:45:19.688Z,21.77
2023-05-02T09:46:24.921Z,21.79
2023-05-02T09:47:30.386Z,21.78
2023-05-02T09:48:35.681Z,21.77
2023-05-02T09:49:40.878Z,21.79
2023-05-02T09:50:46.121Z,21.77
2023-05-02T09:51:51.290Z,21.79
2023-05-02T09:52:56.527Z,21.78
2023-05-02T09:54:01.692Z,21.77
2023-05-02T09:55:06.897Z,21.8
2023-05-02T09:56:12.068Z,21.8
2023-05-02T09:57:17.378Z,21.79
2023-05-02T09:58:22.632Z,21.72
2023-05-02T09:59:27.826Z,21.8
2023-05-02T10:00:33.365Z,21.8
2023-05-02T10:01:38.601Z,21.81
2023-05-02T10:02:44.036Z,21.8
2023-05-02T10:03:49.397Z,21.81
2023-05-02T10:04:54.735Z,21.8
2023-05-02T10:05:59.927Z,21.8
2023-05-02T10:07:05.279Z,21.8
2023-05-02T10:08:10.642Z,21.8
2023-05-02T10:09:19.021Z,21.81
2023-05-02T10:10:25.742Z,21.8
2023-05-02T10:11:31.290Z,21.82
2023-05-02T10:12:36.503Z,21.82
2023-05-02T10:13:41.716Z,21.82
2023-05-02T10:14:46.954Z,21.82
2023-05-02T10:15:52.210Z,21.82
2023-05-02T10:16:57.545Z,21.82
2023-05-02T10:18:02.848Z,21.8
2023-05-02T10:19:08.210Z,21.83
2023-05-02T10:20:13.440Z,21.82
2023-05-02T10:21:19.124Z,21.83
2023-05-02T10:22:24.300Z,21.83
2023-05-02T10:23:29.540Z,21.83
2023-05-02T10:24:34.748Z,21.83
2023-05-02T10:25:39.974Z,21.83
2023-05-02T10:26:45.167Z,21.82
2023-05-02T10:27:50.371Z,21.81
2023-05-02T10:28:55.610Z,21.84
2023-05-02T10:30:00.956Z,21.83
2023-05-02T10:31:06.553Z,21.83
2023-05-02T10:32:11.877Z,21.82
2023-05-02T10:33:17.081Z,21.85
2023-05-02T10:34:22.302Z,21.83
2023-05-02T10:35:29.073Z,21.84
2023-05-02T10:36:34.247Z,21.84
2023-05-02T10:37:39.469Z,21.85
2023-05-02T10:38:44.691Z,21.85
2023-05-02T10:39:49.883Z,21.83
2023-05-02T10:40:58.207Z,21.83
2023-05-02T10:42:03.513Z,21.85
2023-05-02T10:43:08.772Z,21.86
2023-05-02T10:44:14.005Z,21.85
2023-05-02T10:45:19.217Z,21.86
2023-05-02T10:46:24.466Z,21.85
2023-05-02T10:47:30.004Z,21.86
2023-05-02T10:48:35.405Z,21.86
2023-05-02T10:49:40.635Z,21.86
2023-05-02T10:50:46.161Z,21.86
2023-05-02T10:51:51.743Z,21.86
2023-05-02T10:52:57.012Z,21.85
2023-05-02T10:54:02.244Z,21.85
2023-05-02T10:55:07.440Z,21.87
2023-05-02T10:56:12.696Z,21.87
2023-05-02T10:57:17.900Z,21.87
2023-05-02T10:58:23.125Z,21.87
2023-05-02T10:59:28.346Z,21.88
2023-05-02T11:00:33.761Z,21.88
2023-05-02T11:01:41.970Z,21.88
2023-05-02T11:02:47.373Z,21.86
2023-05-02T11:03:53.105Z,21.86
2023-05-02T11:04:58.586Z,21.89
2023-05-02T11:06:05.302Z,21.88
2023-05-02T11:07:10.826Z,21.88
2023-05-02T11:08:16.778Z,21.89
2023-05-02T11:09:26.196Z,21.89
2023-05-02T11:10:31.380Z,21.87
2023-05-02T11:11:36.703Z,21.82
2023-05-02T11:12:41.926Z,21.88
2023-05-02T11:13:47.129Z,21.89
2023-05-02T11:14:52.349Z,21.88
2023-05-02T11:15:57.630Z,21.88
2023-05-02T11:17:03.049Z,21.9
2023-05-02T11:18:08.686Z,21.85
2023-05-02T11:19:14.025Z,21.9
2023-05-02T11:20:19.309Z,21.91
2023-05-02T11:21:24.593Z,21.89
2023-05-02T11:22:29.850Z,21.91
2023-05-02T11:23:35.157Z,21.91
2023-05-02T11:24:40.459Z,21.89
2023-05-02T11:25:45.692Z,21.9
2023-05-02T11:26:50.962Z,21.91
2023-05-02T11:27:56.160Z,21.9
2023-05-02T11:29:01.367Z,21.91
2023-05-02T11:30:06.557Z,21.9
2023-05-02T11:31:12.077Z,21.93
2023-05-02T11:32:17.326Z,21.91
2023-05-02T11:33:22.916Z,21.87
2023-05-02T11:34:28.245Z,21.93
2023-05-02T11:35:33.448Z,21.93
2023-05-02T11:36:38.677Z,21.93
2023-05-02T11:37:43.859Z,21.93
2023-05-02T11:38:49.092Z,21.93
2023-05-02T11:39:54.458Z,21.92
2023-05-02T11:40:59.672Z,21.93
2023-05-02T11:42:04.838Z,21.92
2023-05-02T11:43:10.015Z,21.75
2023-05-02T11:44:15.310Z,21.92
2023-05-02T11:45:20.565Z,21.92
2023-05-02T11:46:25.797Z,21.92
2023-05-02T11:47:31.202Z,21.92
2023-05-02T11:48:36.560Z,21.93
2023-05-02T11:49:41.751Z,21.93
2023-05-02T11:50:49.990Z,21.95
2023-05-02T11:51:55.555Z,21.95
2023-05-02T11:53:00.751Z,21.93
2023-05-02T11:54:05.969Z,21.93
2023-05-02T11:55:11.772Z,21.95
2023-05-02T11:56:17.081Z,21.95
2023-05-02T11:57:22.285Z,21.96
2023-05-02T11:58:27.446Z,21.96
2023-05-02T11:59:32.874Z,21.95
2023-05-02T12:00:38.041Z,21.95
2023-05-02T12:01:43.257Z,21.96
2023-05-02T12:02:48.453Z,21.95
2023-05-02T12:03:53.869Z,21.94
2023-05-02T12:04:59.331Z,21.94
2023-05-02T12:06:05.533Z,21.94
2023-05-02T12:07:12.201Z,21.96
2023-05-02T12:08:17.790Z,21.95
2023-05-02T12:09:23.014Z,21.97
2023-05-02T12:10:28.231Z,21.96
2023-05-02T12:11:33.402Z,21.97
2023-05-02T12:12:38.604Z,21.96
2023-05-02T12:13:43.775Z,21.95
2023-05-02T12:14:48.964Z,21.94
2023-05-02T12:15:54.202Z,21.97
2023-05-02T12:16:59.650Z,21.97
2023-05-02T12:18:04.896Z,21.97
2023-05-02T12:19:10.252Z,21.97
2023-05-02T12:20:15.566Z,21.95
2023-05-02T12:21:20.760Z,21.97
2023-05-02T12:22:25.982Z,21.97
2023-05-02T12:23:31.234Z,21.97
2023-05-02T12:24:39.895Z,21.97
2023-05-02T12:25:45.164Z,21.97
2023-05-02T12:26:51.176Z,21.96
2023-05-02T12:27:57.062Z,21.97
2023-05-02T12:29:02.274Z,21.97
2023-05-02T12:30:07.486Z,21.97
2023-05-02T12:31:12.940Z,21.97
2023-05-02T12:32:18.313Z,21.95
2023-05-02T12:33:23.518Z,21.96
2023-05-02T12:34:28.749Z,21.96
2023-05-02T12:35:33.947Z,21.97
2023-05-02T12:36:39.230Z,21.97
2023-05-02T12:37:45.601Z,21.97
2023-05-02T12:38:51.364Z,21.97
2023-05-02T12:39:57.300Z,21.97
2023-05-02T12:41:02.832Z,21.98
2023-05-02T12:42:08.115Z,21.98
2023-05-02T12:43:13.320Z,21.97
2023-05-02T12:44:18.536Z,21.96
2023-05-02T12:45:23.778Z,21.98
2023-05-02T12:46:28.984Z,21.98
2023-05-02T12:47:34.852Z,21.98
2023-05-02T12:48:40.206Z,21.96
2023-05-02T12:49:46.843Z,21.81
2023-05-02T12:50:52.121Z,21.98
2023-05-02T12:51:57.332Z,21.98
2023-05-02T12:53:02.532Z,21.98
2023-05-02T12:54:07.775Z,21.96
2023-05-02T12:55:15.242Z,21.98
2023-05-02T12:56:20.555Z,21.98
2023-05-02T12:57:25.820Z,21.98
2023-05-02T12:58:31.119Z,21.98
2023-05-02T12:59:36.338Z,21.96
2023-05-02T13:00:41.609Z,21.97
2023-05-02T13:01:50.553Z,21.98
2023-05-02T13:02:55.821Z,21.98
2023-05-02T13:04:01.451Z,21.98
2023-05-02T13:05:06.962Z,21.98
2023-05-02T13:06:12.471Z,21.96
2023-05-02T13:07:17.854Z,21.98
2023-05-02T13:08:23.064Z,21.98
2023-05-02T13:09:28.244Z,21.99
2023-05-02T13:10:33.495Z,21.98
2023-05-02T13:11:38.885Z,21.97
2023-05-02T13:12:45.071Z,21.98
2023-05-02T13:13:54.117Z,21.99
2023-05-02T13:14:59.380Z,21.99
2023-05-02T13:16:04.718Z,21.97
2023-05-02T13:17:10.339Z,21.96
2023-05-02T13:18:15.900Z,21.99
2023-05-02T13:19:21.315Z,21.99
2023-05-02T13:20:26.537Z,21.99
2023-05-02T13:21:31.776Z,21.98
2023-05-02T13:22:36.987Z,21.99
2023-05-02T13:23:42.473Z,21.98
2023-05-02T13:24:47.688Z,21.98
2023-05-02T13:25:52.947Z,21.98
2023-05-02T13:26:58.181Z,21.98
2023-05-02T13:28:03.405Z,21.98
2023-05-02T13:29:08.606Z,21.98
2023-05-02T13:30:13.854Z,21.97
2023-05-02T13:31:19.241Z,21.98
2023-05-02T13:32:24.557Z,21.96
2023-05-02T13:33:29.861Z,21.98
2023-05-02T13:34:35.128Z,21.97
2023-05-02T13:35:40.331Z,21.98
2023-05-02T13:36:45.618Z,21.98
2023-05-02T13:37:50.873Z,21.96
2023-05-02T13:38:56.087Z,21.97
2023-05-02T13:40:01.492Z,21.98
2023-05-02T13:41:07.665Z,21.98
2023-05-02T13:42:12.893Z,21.98
2023-05-02T13:43:18.118Z,21.96
2023-05-02T13:44:23.501Z,21.97
2023-05-02T13:45:28.719Z,21.98
2023-05-02T13:46:33.980Z,21.98
2023-05-02T13:47:40.898Z,21.98
2023-05-02T13:48:46.679Z,21.98
2023-05-02T13:49:51.897Z,21.98
2023-05-02T13:50:57.083Z,21.96
2023-05-02T13:52:02.303Z,21.96
2023-05-02T13:53:07.765Z,21.98
2023-05-02T13:54:12.970Z,21.98
2023-05-02T13:55:18.175Z,21.96
2023-05-02T13:56:23.393Z,21.97
2023-05-02T13:57:28.610Z,21.96
2023-05-02T13:58:33.817Z,21.96
2023-05-02T13:59:39.014Z,21.97
2023-05-02T14:00:44.233Z,21.97
2023-05-02T14:01:49.541Z,21.97
2023-05-02T14:02:55.042Z,21.98
2023-05-02T14:04:00.650Z,21.97
2023-05-02T14:05:06.393Z,21.96
2023-05-02T14:06:11.650Z,21.96